sensor_id;sensor_type;location;lat;lon;timestamp;P1;durP1;ratioP1;P2;durP2;ratioP2
9815;SDS011;4947;44.526;11.360;2023-01-09T00:01:18;76.70;;;34.05;;
9815;SDS011;4947;44.526;11.360;2023-01-09T00:03:51;85.43;;;33.97;;
9815;SDS011;4947;44.526;11.360;2023-01-09T00:06:18;85.60;;;34.40;;
9815;SDS011;4947;44.526;11.360;2023-01-09T00:08:46;84.85;;;35.55;;
9815;SDS011;4947;44.526;11.360;2023-01-09T00:11:14;79.25;;;33.63;;
9815;SDS011;4947;44.526;11.360;2023-01-09T00:13:41;81.38;;;33.72;;
9815;SDS011;4947;44.526;11.360;2023-01-09T00:16:08;81.40;;;34.25;;
9815;SDS011;4947;44.526;11.360;2023-01-09T00:18:38;82.72;;;35.70;;
9815;SDS011;4947;44.526;11.360;2023-01-09T00:21:06;96.90;;;37.08;;
9815;SDS011;4947;44.526;11.360;2023-01-09T00:23:35;87.63;;;36.90;;
9815;SDS011;4947;44.526;11.360;2023-01-09T00:26:03;92.78;;;36.78;;
9815;SDS011;4947;44.526;11.360;2023-01-09T00:28:32;91.25;;;37.08;;
9815;SDS011;4947;44.526;11.360;2023-01-09T00:31:01;106.13;;;36.75;;
9815;SDS011;4947;44.526;11.360;2023-01-09T00:33:32;108.28;;;38.75;;
9815;SDS011;4947;44.526;11.360;2023-01-09T00:36:04;105.65;;;37.67;;
9815;SDS011;4947;44.526;11.360;2023-01-09T00:38:32;106.78;;;39.83;;
9815;SDS011;4947;44.526;11.360;2023-01-09T00:41:00;98.00;;;40.92;;
9815;SDS011;4947;44.526;11.360;2023-01-09T00:43:31;123.45;;;42.78;;
9815;SDS011;4947;44.526;11.360;2023-01-09T00:46:04;112.13;;;42.33;;
9815;SDS011;4947;44.526;11.360;2023-01-09T00:48:33;120.90;;;43.28;;
9815;SDS011;4947;44.526;11.360;2023-01-09T00:51:06;115.47;;;39.95;;
9815;SDS011;4947;44.526;11.360;2023-01-09T00:53:35;109.38;;;40.65;;
9815;SDS011;4947;44.526;11.360;2023-01-09T00:56:06;109.70;;;38.50;;
9815;SDS011;4947;44.526;11.360;2023-01-09T00:58:37;106.90;;;41.30;;
9815;SDS011;4947;44.526;11.360;2023-01-09T01:01:05;107.82;;;41.28;;
9815;SDS011;4947;44.526;11.360;2023-01-09T01:03:33;121.80;;;43.20;;
9815;SDS011;4947;44.526;11.360;2023-01-09T01:06:00;118.65;;;45.63;;
9815;SDS011;4947;44.526;11.360;2023-01-09T01:08:46;126.25;;;42.05;;
9815;SDS011;4947;44.526;11.360;2023-01-09T01:11:21;143.10;;;46.83;;
9815;SDS011;4947;44.526;11.360;2023-01-09T01:13:48;135.18;;;46.28;;
9815;SDS011;4947;44.526;11.360;2023-01-09T01:16:16;120.55;;;41.78;;
9815;SDS011;4947;44.526;11.360;2023-01-09T01:18:44;109.90;;;40.17;;
9815;SDS011;4947;44.526;11.360;2023-01-09T01:21:12;106.80;;;38.08;;
9815;SDS011;4947;44.526;11.360;2023-01-09T01:23:40;118.18;;;40.00;;
9815;SDS011;4947;44.526;11.360;2023-01-09T01:26:11;106.30;;;38.30;;
9815;SDS011;4947;44.526;11.360;2023-01-09T01:28:39;95.60;;;38.03;;
9815;SDS011;4947;44.526;11.360;2023-01-09T01:31:07;103.43;;;39.15;;
9815;SDS011;4947;44.526;11.360;2023-01-09T01:33:41;106.68;;;38.13;;
9815;SDS011;4947;44.526;11.360;2023-01-09T01:36:09;91.97;;;37.03;;
9815;SDS011;4947;44.526;11.360;2023-01-09T01:38:37;97.78;;;36.92;;
9815;SDS011;4947;44.526;11.360;2023-01-09T01:41:04;91.55;;;34.45;;
9815;SDS011;4947;44.526;11.360;2023-01-09T01:43:50;83.55;;;35.75;;
9815;SDS011;4947;44.526;11.360;2023-01-09T01:46:19;81.72;;;34.55;;
9815;SDS011;4947;44.526;11.360;2023-01-09T01:48:47;93.57;;;34.85;;
9815;SDS011;4947;44.526;11.360;2023-01-09T01:51:22;89.65;;;34.28;;
9815;SDS011;4947;44.526;11.360;2023-01-09T01:53:53;82.78;;;33.17;;
9815;SDS011;4947;44.526;11.360;2023-01-09T01:56:24;86.28;;;35.80;;
9815;SDS011;4947;44.526;11.360;2023-01-09T01:58:56;87.75;;;36.25;;
9815;SDS011;4947;44.526;11.360;2023-01-09T02:01:27;88.25;;;37.08;;
9815;SDS011;4947;44.526;11.360;2023-01-09T02:03:57;83.25;;;35.40;;
9815;SDS011;4947;44.526;11.360;2023-01-09T02:06:26;96.25;;;36.05;;
9815;SDS011;4947;44.526;11.360;2023-01-09T02:08:55;88.22;;;33.55;;
9815;SDS011;4947;44.526;11.360;2023-01-09T02:11:27;93.57;;;39.08;;
9815;SDS011;4947;44.526;11.360;2023-01-09T02:13:57;87.20;;;34.95;;
9815;SDS011;4947;44.526;11.360;2023-01-09T02:16:30;95.63;;;35.88;;
9815;SDS011;4947;44.526;11.360;2023-01-09T02:19:06;85.38;;;32.38;;
9815;SDS011;4947;44.526;11.360;2023-01-09T02:21:47;86.03;;;34.40;;
9815;SDS011;4947;44.526;11.360;2023-01-09T02:24:32;97.25;;;35.20;;
9815;SDS011;4947;44.526;11.360;2023-01-09T02:27:24;77.47;;;32.95;;
9815;SDS011;4947;44.526;11.360;2023-01-09T02:30:17;91.78;;;33.15;;
9815;SDS011;4947;44.526;11.360;2023-01-09T02:32:57;68.57;;;30.75;;
9815;SDS011;4947;44.526;11.360;2023-01-09T02:35:38;78.45;;;32.92;;
9815;SDS011;4947;44.526;11.360;2023-01-09T02:38:16;70.32;;;31.00;;
9815;SDS011;4947;44.526;11.360;2023-01-09T02:40:55;73.43;;;29.23;;
9815;SDS011;4947;44.526;11.360;2023-01-09T02:43:28;82.78;;;30.92;;
9815;SDS011;4947;44.526;11.360;2023-01-09T02:45:58;70.95;;;31.00;;
9815;SDS011;4947;44.526;11.360;2023-01-09T02:48:30;66.50;;;29.85;;
9815;SDS011;4947;44.526;11.360;2023-01-09T02:51:00;63.72;;;26.38;;
9815;SDS011;4947;44.526;11.360;2023-01-09T02:53:46;69.45;;;30.13;;
9815;SDS011;4947;44.526;11.360;2023-01-09T02:56:41;66.45;;;30.73;;
9815;SDS011;4947;44.526;11.360;2023-01-09T02:59:29;63.30;;;27.38;;
9815;SDS011;4947;44.526;11.360;2023-01-09T03:02:15;66.40;;;28.20;;
9815;SDS011;4947;44.526;11.360;2023-01-09T03:05:01;69.53;;;28.98;;
9815;SDS011;4947;44.526;11.360;2023-01-09T03:07:35;68.57;;;30.90;;
9815;SDS011;4947;44.526;11.360;2023-01-09T03:10:07;81.53;;;31.83;;
9815;SDS011;4947;44.526;11.360;2023-01-09T03:12:41;76.43;;;31.25;;
9815;SDS011;4947;44.526;11.360;2023-01-09T03:15:10;71.45;;;30.92;;
9815;SDS011;4947;44.526;11.360;2023-01-09T03:17:42;88.07;;;34.30;;
9815;SDS011;4947;44.526;11.360;2023-01-09T03:20:14;77.57;;;33.42;;
9815;SDS011;4947;44.526;11.360;2023-01-09T03:22:46;75.43;;;33.40;;
9815;SDS011;4947;44.526;11.360;2023-01-09T03:25:29;93.22;;;34.03;;
9815;SDS011;4947;44.526;11.360;2023-01-09T03:27:57;75.68;;;32.45;;
9815;SDS011;4947;44.526;11.360;2023-01-09T03:30:27;79.70;;;33.35;;
9815;SDS011;4947;44.526;11.360;2023-01-09T03:32:57;80.78;;;34.35;;
9815;SDS011;4947;44.526;11.360;2023-01-09T03:35:25;75.40;;;30.75;;
9815;SDS011;4947;44.526;11.360;2023-01-09T03:37:53;70.47;;;32.47;;
9815;SDS011;4947;44.526;11.360;2023-01-09T03:40:25;67.90;;;31.63;;
9815;SDS011;4947;44.526;11.360;2023-01-09T03:42:53;65.75;;;30.02;;
9815;SDS011;4947;44.526;11.360;2023-01-09T03:45:20;63.50;;;30.58;;
9815;SDS011;4947;44.526;11.360;2023-01-09T03:47:48;53.13;;;27.58;;
9815;SDS011;4947;44.526;11.360;2023-01-09T03:50:17;55.22;;;28.40;;
9815;SDS011;4947;44.526;11.360;2023-01-09T03:52:44;57.45;;;29.35;;
9815;SDS011;4947;44.526;11.360;2023-01-09T03:55:12;49.50;;;25.83;;
9815;SDS011;4947;44.526;11.360;2023-01-09T03:57:40;43.40;;;23.70;;
9815;SDS011;4947;44.526;11.360;2023-01-09T04:00:11;44.40;;;24.48;;
9815;SDS011;4947;44.526;11.360;2023-01-09T04:02:39;47.63;;;22.85;;
9815;SDS011;4947;44.526;11.360;2023-01-09T04:05:07;44.17;;;23.10;;
9815;SDS011;4947;44.526;11.360;2023-01-09T04:07:36;43.15;;;22.75;;
9815;SDS011;4947;44.526;11.360;2023-01-09T04:10:04;42.25;;;24.23;;
9815;SDS011;4947;44.526;11.360;2023-01-09T04:12:32;37.30;;;21.80;;
9815;SDS011;4947;44.526;11.360;2023-01-09T04:15:00;37.88;;;21.65;;
9815;SDS011;4947;44.526;11.360;2023-01-09T04:17:27;40.03;;;21.08;;
9815;SDS011;4947;44.526;11.360;2023-01-09T04:19:55;37.42;;;21.08;;
9815;SDS011;4947;44.526;11.360;2023-01-09T04:22:23;34.45;;;20.02;;
9815;SDS011;4947;44.526;11.360;2023-01-09T04:24:52;34.65;;;19.75;;
9815;SDS011;4947;44.526;11.360;2023-01-09T04:27:30;35.35;;;21.83;;
9815;SDS011;4947;44.526;11.360;2023-01-09T04:29:57;36.15;;;19.10;;
9815;SDS011;4947;44.526;11.360;2023-01-09T04:32:25;35.20;;;21.13;;
9815;SDS011;4947;44.526;11.360;2023-01-09T04:34:53;36.15;;;20.35;;
9815;SDS011;4947;44.526;11.360;2023-01-09T04:37:21;37.72;;;20.98;;
9815;SDS011;4947;44.526;11.360;2023-01-09T04:39:49;38.47;;;22.33;;
9815;SDS011;4947;44.526;11.360;2023-01-09T04:42:20;34.58;;;21.77;;
9815;SDS011;4947;44.526;11.360;2023-01-09T04:44:48;41.00;;;22.73;;
9815;SDS011;4947;44.526;11.360;2023-01-09T04:47:18;41.88;;;23.83;;
9815;SDS011;4947;44.526;11.360;2023-01-09T04:49:46;38.03;;;23.15;;
9815;SDS011;4947;44.526;11.360;2023-01-09T04:52:13;39.15;;;22.35;;
9815;SDS011;4947;44.526;11.360;2023-01-09T04:54:41;41.47;;;23.00;;
9815;SDS011;4947;44.526;11.360;2023-01-09T04:57:10;41.65;;;23.27;;
9815;SDS011;4947;44.526;11.360;2023-01-09T04:59:37;40.03;;;22.27;;
9815;SDS011;4947;44.526;11.360;2023-01-09T05:02:05;36.22;;;22.08;;
9815;SDS011;4947;44.526;11.360;2023-01-09T05:04:33;39.03;;;22.70;;
9815;SDS011;4947;44.526;11.360;2023-01-09T05:07:01;43.22;;;24.00;;
9815;SDS011;4947;44.526;11.360;2023-01-09T05:09:31;39.50;;;23.88;;
9815;SDS011;4947;44.526;11.360;2023-01-09T05:12:00;39.22;;;22.08;;
9815;SDS011;4947;44.526;11.360;2023-01-09T05:14:30;38.15;;;23.25;;
9815;SDS011;4947;44.526;11.360;2023-01-09T05:16:57;35.20;;;21.02;;
9815;SDS011;4947;44.526;11.360;2023-01-09T05:19:25;34.60;;;20.25;;
9815;SDS011;4947;44.526;11.360;2023-01-09T05:21:56;36.78;;;21.48;;
9815;SDS011;4947;44.526;11.360;2023-01-09T05:24:25;37.58;;;20.23;;
9815;SDS011;4947;44.526;11.360;2023-01-09T05:26:55;35.45;;;20.88;;
9815;SDS011;4947;44.526;11.360;2023-01-09T05:29:23;34.65;;;20.67;;
9815;SDS011;4947;44.526;11.360;2023-01-09T05:31:52;34.78;;;19.92;;
9815;SDS011;4947;44.526;11.360;2023-01-09T05:34:20;29.60;;;19.88;;
9815;SDS011;4947;44.526;11.360;2023-01-09T05:36:47;31.20;;;19.05;;
9815;SDS011;4947;44.526;11.360;2023-01-09T05:39:15;32.33;;;19.60;;
9815;SDS011;4947;44.526;11.360;2023-01-09T05:41:42;28.10;;;17.38;;
9815;SDS011;4947;44.526;11.360;2023-01-09T05:44:10;31.08;;;18.75;;
9815;SDS011;4947;44.526;11.360;2023-01-09T05:46:37;29.77;;;17.52;;
9815;SDS011;4947;44.526;11.360;2023-01-09T05:49:06;30.38;;;16.50;;
9815;SDS011;4947;44.526;11.360;2023-01-09T05:51:34;27.95;;;15.52;;
9815;SDS011;4947;44.526;11.360;2023-01-09T05:54:01;27.00;;;15.73;;
9815;SDS011;4947;44.526;11.360;2023-01-09T05:56:31;25.42;;;15.35;;
9815;SDS011;4947;44.526;11.360;2023-01-09T05:58:59;26.20;;;14.85;;
9815;SDS011;4947;44.526;11.360;2023-01-09T06:01:29;23.40;;;14.75;;
9815;SDS011;4947;44.526;11.360;2023-01-09T06:03:57;25.15;;;14.75;;
9815;SDS011;4947;44.526;11.360;2023-01-09T06:06:26;24.10;;;14.48;;
9815;SDS011;4947;44.526;11.360;2023-01-09T06:08:54;22.73;;;15.05;;
9815;SDS011;4947;44.526;11.360;2023-01-09T06:11:22;22.58;;;14.20;;
9815;SDS011;4947;44.526;11.360;2023-01-09T06:13:50;21.88;;;14.07;;
9815;SDS011;4947;44.526;11.360;2023-01-09T06:16:18;25.95;;;14.82;;
9815;SDS011;4947;44.526;11.360;2023-01-09T06:18:45;23.20;;;13.32;;
9815;SDS011;4947;44.526;11.360;2023-01-09T06:21:13;21.45;;;13.32;;
9815;SDS011;4947;44.526;11.360;2023-01-09T06:23:42;25.90;;;14.43;;
9815;SDS011;4947;44.526;11.360;2023-01-09T06:26:10;21.67;;;13.52;;
9815;SDS011;4947;44.526;11.360;2023-01-09T06:28:37;22.00;;;14.43;;
9815;SDS011;4947;44.526;11.360;2023-01-09T06:31:05;23.50;;;14.30;;
9815;SDS011;4947;44.526;11.360;2023-01-09T06:33:33;25.48;;;14.45;;
9815;SDS011;4947;44.526;11.360;2023-01-09T06:36:00;22.48;;;13.77;;
9815;SDS011;4947;44.526;11.360;2023-01-09T06:38:28;23.40;;;14.32;;
9815;SDS011;4947;44.526;11.360;2023-01-09T06:40:57;22.90;;;15.15;;
9815;SDS011;4947;44.526;11.360;2023-01-09T06:43:25;32.50;;;15.30;;
9815;SDS011;4947;44.526;11.360;2023-01-09T06:45:52;24.23;;;14.85;;
9815;SDS011;4947;44.526;11.360;2023-01-09T06:48:19;26.15;;;14.85;;
9815;SDS011;4947;44.526;11.360;2023-01-09T06:50:49;26.75;;;15.57;;
9815;SDS011;4947;44.526;11.360;2023-01-09T06:53:17;24.80;;;14.60;;
9815;SDS011;4947;44.526;11.360;2023-01-09T06:55:44;28.30;;;15.10;;
9815;SDS011;4947;44.526;11.360;2023-01-09T06:58:14;25.20;;;12.90;;
9815;SDS011;4947;44.526;11.360;2023-01-09T07:00:42;27.92;;;14.77;;
9815;SDS011;4947;44.526;11.360;2023-01-09T07:03:09;28.70;;;14.52;;
9815;SDS011;4947;44.526;11.360;2023-01-09T07:05:43;23.05;;;15.32;;
9815;SDS011;4947;44.526;11.360;2023-01-09T07:08:12;21.85;;;14.43;;
9815;SDS011;4947;44.526;11.360;2023-01-09T07:10:40;24.88;;;14.93;;
9815;SDS011;4947;44.526;11.360;2023-01-09T07:13:08;22.48;;;14.05;;
9815;SDS011;4947;44.526;11.360;2023-01-09T07:15:37;21.27;;;13.85;;
9815;SDS011;4947;44.526;11.360;2023-01-09T07:18:04;21.42;;;13.98;;
9815;SDS011;4947;44.526;11.360;2023-01-09T07:20:32;19.88;;;13.60;;
9815;SDS011;4947;44.526;11.360;2023-01-09T07:23:03;23.30;;;13.88;;
9815;SDS011;4947;44.526;11.360;2023-01-09T07:25:33;22.60;;;13.65;;
9815;SDS011;4947;44.526;11.360;2023-01-09T07:28:01;22.38;;;14.27;;
9815;SDS011;4947;44.526;11.360;2023-01-09T07:30:29;22.70;;;12.73;;
9815;SDS011;4947;44.526;11.360;2023-01-09T07:33:02;23.73;;;13.63;;
9815;SDS011;4947;44.526;11.360;2023-01-09T07:35:30;22.92;;;14.18;;
9815;SDS011;4947;44.526;11.360;2023-01-09T07:37:57;25.15;;;14.73;;
9815;SDS011;4947;44.526;11.360;2023-01-09T07:40:25;22.25;;;12.77;;
9815;SDS011;4947;44.526;11.360;2023-01-09T07:42:54;27.83;;;14.45;;
9815;SDS011;4947;44.526;11.360;2023-01-09T07:45:21;26.15;;;14.05;;
9815;SDS011;4947;44.526;11.360;2023-01-09T07:47:49;28.38;;;14.52;;
9815;SDS011;4947;44.526;11.360;2023-01-09T07:50:19;28.05;;;14.65;;
9815;SDS011;4947;44.526;11.360;2023-01-09T07:52:46;23.70;;;13.18;;
9815;SDS011;4947;44.526;11.360;2023-01-09T07:55:13;25.52;;;13.80;;
9815;SDS011;4947;44.526;11.360;2023-01-09T07:57:41;28.30;;;12.77;;
9815;SDS011;4947;44.526;11.360;2023-01-09T08:00:14;23.35;;;13.15;;
9815;SDS011;4947;44.526;11.360;2023-01-09T08:02:42;31.42;;;13.65;;
9815;SDS011;4947;44.526;11.360;2023-01-09T08:05:09;22.45;;;13.38;;
9815;SDS011;4947;44.526;11.360;2023-01-09T08:07:43;24.95;;;13.00;;
9815;SDS011;4947;44.526;11.360;2023-01-09T08:10:11;22.63;;;13.93;;
9815;SDS011;4947;44.526;11.360;2023-01-09T08:12:41;20.42;;;12.98;;
9815;SDS011;4947;44.526;11.360;2023-01-09T08:15:09;26.40;;;13.77;;
9815;SDS011;4947;44.526;11.360;2023-01-09T08:17:40;24.92;;;13.05;;
9815;SDS011;4947;44.526;11.360;2023-01-09T08:20:10;22.98;;;13.10;;
9815;SDS011;4947;44.526;11.360;2023-01-09T08:22:39;29.70;;;13.38;;
9815;SDS011;4947;44.526;11.360;2023-01-09T08:25:09;27.25;;;13.10;;
9815;SDS011;4947;44.526;11.360;2023-01-09T08:27:37;20.52;;;13.05;;
9815;SDS011;4947;44.526;11.360;2023-01-09T08:30:05;18.75;;;11.38;;
9815;SDS011;4947;44.526;11.360;2023-01-09T08:32:33;22.00;;;11.10;;
9815;SDS011;4947;44.526;11.360;2023-01-09T08:35:02;15.70;;;10.93;;
9815;SDS011;4947;44.526;11.360;2023-01-09T08:37:30;16.27;;;11.48;;
9815;SDS011;4947;44.526;11.360;2023-01-09T08:39:58;17.67;;;11.55;;
9815;SDS011;4947;44.526;11.360;2023-01-09T08:42:27;17.98;;;11.05;;
9815;SDS011;4947;44.526;11.360;2023-01-09T08:45:13;17.30;;;11.63;;
9815;SDS011;4947;44.526;11.360;2023-01-09T08:47:57;14.45;;;10.50;;
9815;SDS011;4947;44.526;11.360;2023-01-09T08:50:25;16.40;;;10.73;;
9815;SDS011;4947;44.526;11.360;2023-01-09T08:52:53;17.45;;;11.50;;
9815;SDS011;4947;44.526;11.360;2023-01-09T08:55:20;17.90;;;11.32;;
9815;SDS011;4947;44.526;11.360;2023-01-09T08:57:49;16.70;;;10.75;;
9815;SDS011;4947;44.526;11.360;2023-01-09T09:00:18;17.40;;;10.27;;
9815;SDS011;4947;44.526;11.360;2023-01-09T09:02:49;12.73;;;9.05;;
9815;SDS011;4947;44.526;11.360;2023-01-09T09:05:18;14.80;;;9.30;;
9815;SDS011;4947;44.526;11.360;2023-01-09T09:07:49;13.80;;;9.40;;
9815;SDS011;4947;44.526;11.360;2023-01-09T09:10:19;12.75;;;8.85;;
9815;SDS011;4947;44.526;11.360;2023-01-09T09:12:47;12.75;;;9.57;;
9815;SDS011;4947;44.526;11.360;2023-01-09T09:15:17;14.43;;;9.30;;
9815;SDS011;4947;44.526;11.360;2023-01-09T09:17:48;11.63;;;7.75;;
9815;SDS011;4947;44.526;11.360;2023-01-09T09:20:16;12.90;;;8.35;;
9815;SDS011;4947;44.526;11.360;2023-01-09T09:22:44;11.73;;;8.32;;
9815;SDS011;4947;44.526;11.360;2023-01-09T09:25:12;11.10;;;7.53;;
9815;SDS011;4947;44.526;11.360;2023-01-09T09:27:40;10.18;;;7.65;;
9815;SDS011;4947;44.526;11.360;2023-01-09T09:30:08;10.43;;;7.82;;
9815;SDS011;4947;44.526;11.360;2023-01-09T09:32:38;9.80;;;7.65;;
9815;SDS011;4947;44.526;11.360;2023-01-09T09:35:06;8.75;;;7.32;;
9815;SDS011;4947;44.526;11.360;2023-01-09T09:37:38;10.02;;;8.18;;
9815;SDS011;4947;44.526;11.360;2023-01-09T09:40:11;9.90;;;7.50;;
9815;SDS011;4947;44.526;11.360;2023-01-09T09:42:52;9.98;;;7.60;;
9815;SDS011;4947;44.526;11.360;2023-01-09T09:45:55;11.13;;;7.20;;
9815;SDS011;4947;44.526;11.360;2023-01-09T09:48:34;9.15;;;7.20;;
9815;SDS011;4947;44.526;11.360;2023-01-09T09:54:19;9.07;;;6.15;;
9815;SDS011;4947;44.526;11.360;2023-01-09T09:56:51;9.60;;;7.20;;
9815;SDS011;4947;44.526;11.360;2023-01-09T09:59:23;20.65;;;8.00;;
9815;SDS011;4947;44.526;11.360;2023-01-09T10:01:55;11.18;;;7.38;;
9815;SDS011;4947;44.526;11.360;2023-01-09T10:04:27;10.95;;;8.05;;
9815;SDS011;4947;44.526;11.360;2023-01-09T10:07:00;12.52;;;8.65;;
9815;SDS011;4947;44.526;11.360;2023-01-09T10:09:35;10.63;;;8.10;;
9815;SDS011;4947;44.526;11.360;2023-01-09T10:12:14;10.73;;;8.48;;
9815;SDS011;4947;44.526;11.360;2023-01-09T10:14:51;11.77;;;8.63;;
9815;SDS011;4947;44.526;11.360;2023-01-09T10:17:23;11.80;;;8.50;;
9815;SDS011;4947;44.526;11.360;2023-01-09T10:23:12;14.75;;;9.73;;
9815;SDS011;4947;44.526;11.360;2023-01-09T10:25:52;12.43;;;9.23;;
9815;SDS011;4947;44.526;11.360;2023-01-09T10:28:31;13.70;;;10.13;;
9815;SDS011;4947;44.526;11.360;2023-01-09T10:31:16;14.82;;;10.73;;
9815;SDS011;4947;44.526;11.360;2023-01-09T10:33:51;17.58;;;11.02;;
9815;SDS011;4947;44.526;11.360;2023-01-09T10:39:25;17.98;;;12.68;;
9815;SDS011;4947;44.526;11.360;2023-01-09T10:42:00;19.95;;;13.80;;
9815;SDS011;4947;44.526;11.360;2023-01-09T10:44:32;21.67;;;13.52;;
9815;SDS011;4947;44.526;11.360;2023-01-09T10:47:04;22.65;;;14.80;;
9815;SDS011;4947;44.526;11.360;2023-01-09T10:49:36;26.13;;;16.17;;
9815;SDS011;4947;44.526;11.360;2023-01-09T10:52:10;22.92;;;15.00;;
9815;SDS011;4947;44.526;11.360;2023-01-09T10:54:45;21.27;;;14.20;;
9815;SDS011;4947;44.526;11.360;2023-01-09T10:57:27;21.05;;;14.20;;
9815;SDS011;4947;44.526;11.360;2023-01-09T11:00:01;23.55;;;14.55;;
9815;SDS011;4947;44.526;11.360;2023-01-09T11:02:30;23.38;;;14.65;;
9815;SDS011;4947;44.526;11.360;2023-01-09T11:05:00;20.35;;;14.48;;
9815;SDS011;4947;44.526;11.360;2023-01-09T11:07:28;22.98;;;14.77;;
9815;SDS011;4947;44.526;11.360;2023-01-09T11:09:59;21.55;;;13.75;;
9815;SDS011;4947;44.526;11.360;2023-01-09T11:12:30;23.63;;;14.98;;
9815;SDS011;4947;44.526;11.360;2023-01-09T11:17:53;21.30;;;13.65;;
9815;SDS011;4947;44.526;11.360;2023-01-09T11:20:25;24.48;;;15.40;;
9815;SDS011;4947;44.526;11.360;2023-01-09T11:22:55;22.65;;;13.57;;
9815;SDS011;4947;44.526;11.360;2023-01-09T11:25:26;20.95;;;13.00;;
9815;SDS011;4947;44.526;11.360;2023-01-09T11:28:04;23.13;;;14.02;;
9815;SDS011;4947;44.526;11.360;2023-01-09T11:30:33;20.30;;;12.68;;
9815;SDS011;4947;44.526;11.360;2023-01-09T11:33:12;21.25;;;12.65;;
9815;SDS011;4947;44.526;11.360;2023-01-09T11:35:49;20.95;;;12.68;;
9815;SDS011;4947;44.526;11.360;2023-01-09T11:38:22;19.85;;;12.85;;
9815;SDS011;4947;44.526;11.360;2023-01-09T11:40:52;20.73;;;13.23;;
9815;SDS011;4947;44.526;11.360;2023-01-09T11:43:24;17.83;;;12.90;;
9815;SDS011;4947;44.526;11.360;2023-01-09T11:45:57;20.15;;;13.43;;
9815;SDS011;4947;44.526;11.360;2023-01-09T11:48:33;19.50;;;12.60;;
9815;SDS011;4947;44.526;11.360;2023-01-09T11:51:04;18.15;;;13.07;;
9815;SDS011;4947;44.526;11.360;2023-01-09T11:53:44;16.58;;;11.55;;
9815;SDS011;4947;44.526;11.360;2023-01-09T11:56:24;16.75;;;11.65;;
9815;SDS011;4947;44.526;11.360;2023-01-09T11:58:53;19.30;;;12.90;;
9815;SDS011;4947;44.526;11.360;2023-01-09T12:01:24;18.95;;;12.75;;
9815;SDS011;4947;44.526;11.360;2023-01-09T12:04:26;18.70;;;12.23;;
9815;SDS011;4947;44.526;11.360;2023-01-09T12:07:03;16.70;;;12.65;;
9815;SDS011;4947;44.526;11.360;2023-01-09T12:09:52;20.92;;;13.25;;
9815;SDS011;4947;44.526;11.360;2023-01-09T12:12:32;24.75;;;15.70;;
9815;SDS011;4947;44.526;11.360;2023-01-09T12:15:11;24.05;;;15.52;;
9815;SDS011;4947;44.526;11.360;2023-01-09T12:17:55;21.30;;;14.07;;
9815;SDS011;4947;44.526;11.360;2023-01-09T12:20:42;26.92;;;17.60;;
9815;SDS011;4947;44.526;11.360;2023-01-09T12:23:27;24.45;;;15.80;;
9815;SDS011;4947;44.526;11.360;2023-01-09T12:26:09;25.15;;;17.17;;
9815;SDS011;4947;44.526;11.360;2023-01-09T12:28:47;27.55;;;17.42;;
9815;SDS011;4947;44.526;11.360;2023-01-09T12:31:37;26.35;;;17.08;;
9815;SDS011;4947;44.526;11.360;2023-01-09T12:34:18;28.98;;;17.88;;
9815;SDS011;4947;44.526;11.360;2023-01-09T12:37:00;25.85;;;17.27;;
9815;SDS011;4947;44.526;11.360;2023-01-09T12:39:50;24.38;;;16.80;;
9815;SDS011;4947;44.526;11.360;2023-01-09T12:42:32;23.90;;;16.88;;
9815;SDS011;4947;44.526;11.360;2023-01-09T12:45:24;26.83;;;16.50;;
9815;SDS011;4947;44.526;11.360;2023-01-09T12:48:01;23.65;;;15.48;;
9815;SDS011;4947;44.526;11.360;2023-01-09T12:53:28;23.85;;;16.10;;
9815;SDS011;4947;44.526;11.360;2023-01-09T12:56:02;23.27;;;15.60;;
9815;SDS011;4947;44.526;11.360;2023-01-09T12:58:36;21.98;;;15.18;;
9815;SDS011;4947;44.526;11.360;2023-01-09T13:01:11;24.50;;;15.27;;
9815;SDS011;4947;44.526;11.360;2023-01-09T13:03:43;23.25;;;15.93;;
9815;SDS011;4947;44.526;11.360;2023-01-09T13:06:16;24.40;;;14.98;;
9815;SDS011;4947;44.526;11.360;2023-01-09T13:08:47;24.70;;;15.05;;
9815;SDS011;4947;44.526;11.360;2023-01-09T13:11:19;21.00;;;14.70;;
9815;SDS011;4947;44.526;11.360;2023-01-09T13:13:52;21.48;;;14.93;;
9815;SDS011;4947;44.526;11.360;2023-01-09T13:16:26;22.58;;;15.80;;
9815;SDS011;4947;44.526;11.360;2023-01-09T13:18:58;22.20;;;15.15;;
9815;SDS011;4947;44.526;11.360;2023-01-09T13:21:31;19.60;;;13.77;;
9815;SDS011;4947;44.526;11.360;2023-01-09T13:24:00;19.00;;;13.05;;
9815;SDS011;4947;44.526;11.360;2023-01-09T13:26:39;18.65;;;12.82;;
9815;SDS011;4947;44.526;11.360;2023-01-09T13:29:11;19.05;;;13.23;;
9815;SDS011;4947;44.526;11.360;2023-01-09T13:31:49;16.08;;;11.13;;
9815;SDS011;4947;44.526;11.360;2023-01-09T13:34:36;16.50;;;10.80;;
9815;SDS011;4947;44.526;11.360;2023-01-09T13:37:04;21.42;;;11.20;;
9815;SDS011;4947;44.526;11.360;2023-01-09T13:39:53;19.65;;;12.20;;
9815;SDS011;4947;44.526;11.360;2023-01-09T13:42:21;15.85;;;12.02;;
9815;SDS011;4947;44.526;11.360;2023-01-09T13:45:10;15.95;;;10.77;;
9815;SDS011;4947;44.526;11.360;2023-01-09T13:47:47;13.65;;;9.13;;
9815;SDS011;4947;44.526;11.360;2023-01-09T13:50:48;14.25;;;9.48;;
9815;SDS011;4947;44.526;11.360;2023-01-09T13:56:09;13.98;;;9.63;;
9815;SDS011;4947;44.526;11.360;2023-01-09T13:58:57;13.20;;;8.80;;
9815;SDS011;4947;44.526;11.360;2023-01-09T14:01:42;13.20;;;9.20;;
9815;SDS011;4947;44.526;11.360;2023-01-09T14:07:16;11.93;;;8.98;;
9815;SDS011;4947;44.526;11.360;2023-01-09T14:09:48;15.90;;;8.95;;
9815;SDS011;4947;44.526;11.360;2023-01-09T14:12:21;15.48;;;9.00;;
9815;SDS011;4947;44.526;11.360;2023-01-09T14:14:50;12.18;;;8.63;;
9815;SDS011;4947;44.526;11.360;2023-01-09T14:17:23;12.25;;;8.48;;
9815;SDS011;4947;44.526;11.360;2023-01-09T14:19:58;12.90;;;9.00;;
9815;SDS011;4947;44.526;11.360;2023-01-09T14:22:28;11.82;;;8.63;;
9815;SDS011;4947;44.526;11.360;2023-01-09T14:25:00;11.88;;;8.13;;
9815;SDS011;4947;44.526;11.360;2023-01-09T14:27:49;12.50;;;8.45;;
9815;SDS011;4947;44.526;11.360;2023-01-09T14:30:36;11.50;;;8.30;;
9815;SDS011;4947;44.526;11.360;2023-01-09T14:35:57;15.88;;;8.43;;
9815;SDS011;4947;44.526;11.360;2023-01-09T14:38:46;11.95;;;8.20;;
9815;SDS011;4947;44.526;11.360;2023-01-09T14:41:20;13.10;;;8.85;;
9815;SDS011;4947;44.526;11.360;2023-01-09T14:44:11;11.13;;;8.32;;
9815;SDS011;4947;44.526;11.360;2023-01-09T14:46:51;10.82;;;8.02;;
9815;SDS011;4947;44.526;11.360;2023-01-09T14:49:26;10.20;;;7.93;;
9815;SDS011;4947;44.526;11.360;2023-01-09T14:52:01;11.93;;;7.82;;
9815;SDS011;4947;44.526;11.360;2023-01-09T14:54:36;11.00;;;7.03;;
9815;SDS011;4947;44.526;11.360;2023-01-09T15:00:02;9.32;;;6.95;;
9815;SDS011;4947;44.526;11.360;2023-01-09T15:02:33;10.00;;;7.50;;
9815;SDS011;4947;44.526;11.360;2023-01-09T15:05:02;11.60;;;7.53;;
9815;SDS011;4947;44.526;11.360;2023-01-09T15:07:35;9.40;;;7.78;;
9815;SDS011;4947;44.526;11.360;2023-01-09T15:10:10;12.63;;;7.50;;
9815;SDS011;4947;44.526;11.360;2023-01-09T15:12:43;9.48;;;7.50;;
9815;SDS011;4947;44.526;11.360;2023-01-09T15:15:14;10.63;;;6.63;;
9815;SDS011;4947;44.526;11.360;2023-01-09T15:17:52;10.60;;;7.93;;
9815;SDS011;4947;44.526;11.360;2023-01-09T15:20:22;16.58;;;7.82;;
9815;SDS011;4947;44.526;11.360;2023-01-09T15:22:54;12.40;;;7.47;;
9815;SDS011;4947;44.526;11.360;2023-01-09T15:25:23;9.52;;;7.38;;
9815;SDS011;4947;44.526;11.360;2023-01-09T15:27:53;10.02;;;7.10;;
9815;SDS011;4947;44.526;11.360;2023-01-09T15:30:23;9.70;;;7.00;;
9815;SDS011;4947;44.526;11.360;2023-01-09T15:32:58;9.55;;;7.38;;